Weather History for KGAI - September, 2013

Change the Weather History Date:

Thursday, September 26, 2013

  Actual Average (KCGS) Record (KCGS)
Temperature  
Mean Temperature 62 °F -  
Max Temperature 73 °F 74 °F 95 °F (1970)
Min Temperature 51 °F 54 °F 39 °F (1967)
Degree Days  
Heating Degree Days 3    
Growing Degree Days 12 (Base 50)    
Moisture  
Dew Point 50 °F    
Average Humidity 72    
Maximum Humidity 94    
Minimum Humidity 43    
Precipitation  
Precipitation 0.00 in - - ()
Sea Level Pressure  
Sea Level Pressure 30.03 in    
Wind  
Wind Speed 1 mph (ENE)    
Max Wind Speed 7 mph    
Max Gust Speed -    
Visibility 10 miles    
Events      
Averages and records for this station are not official NWS values.
T = Trace of Precipitation, MM = Missing Value Source: NWS Daily Summary

Daily Weather History Graph

Daily Weather History Graph

Search for Another Location

Airport or City:

Trip Planner

Search our weather history database for the weather conditions in past years. The results will help you decide how hot, cold, wet, or windy it might be!

Date:

Astronomy

Sep. 26, 2013 Rise Set
Actual Time 7:00 AM EDT 6:58 PM EDT
Civil Twilight 6:33 AM EDT 7:25 PM EDT
Nautical Twilight 6:02 AM EDT 7:56 PM EDT
Astronomical Twilight 5:30 AM EDT 8:28 PM EDT
Moon 11:57 PM EDT (9/26) 1:48 PM EDT (9/26)
Length of Visible Light 12h 51m
Length of Day
11h 58m
Waning Gibbous, 55% of the Moon is Illuminated
Sep 26
Waning Gibbous
Sep 26
Last Quarter
Oct 4
New
Oct 11
First Quarter
Oct 18
Full

Hourly Weather History & Observations

Time (EDT) Temp. Dew Point Humidity Pressure Visibility Wind Dir Wind Speed Gust Speed Precip Events Conditions
12:15 AM 51.8 °F 48.2 °F 88% 29.98 in 10.0 mi Calm Calm - N/A   Clear
12:35 AM 51.8 °F 48.2 °F 88% 29.97 in 10.0 mi Calm Calm - N/A   Clear
12:55 AM 51.8 °F 50.0 °F 94% 29.97 in 10.0 mi Calm Calm - N/A   Clear
1:15 AM 51.8 °F 48.2 °F 88% 29.97 in 10.0 mi Calm Calm - N/A   Clear
1:35 AM 51.8 °F 48.2 °F 88% 29.97 in 10.0 mi Calm Calm - N/A   Clear
1:55 AM 51.8 °F 48.2 °F 88% 29.97 in 10.0 mi Calm Calm - N/A   Clear
2:15 AM 51.8 °F 48.2 °F 88% 29.97 in 10.0 mi Calm Calm - N/A   Clear
2:35 AM 51.8 °F 48.2 °F 88% 29.97 in 10.0 mi Calm Calm - N/A   Clear
2:55 AM 51.8 °F 48.2 °F 88% 29.97 in 10.0 mi Calm Calm - N/A   Clear
3:15 AM 51.8 °F 48.2 °F 88% 29.96 in 10.0 mi Calm Calm - N/A   Clear
3:35 AM 51.8 °F 48.2 °F 88% 29.96 in 10.0 mi Calm Calm - N/A   Clear
3:55 AM 51.8 °F 48.2 °F 88% 29.97 in 10.0 mi Calm Calm - N/A   Clear
4:15 AM 51.8 °F 48.2 °F 88% 29.97 in 10.0 mi Calm Calm - N/A   Clear
4:35 AM 51.8 °F 48.2 °F 88% 29.97 in 10.0 mi Calm Calm - N/A   Clear
4:55 AM 51.8 °F 48.2 °F 88% 29.97 in 10.0 mi Calm Calm - N/A   Clear
5:15 AM 51.8 °F 48.2 °F 88% 29.97 in 10.0 mi Calm Calm - N/A   Clear
5:35 AM 51.8 °F 48.2 °F 88% 29.97 in 10.0 mi Calm Calm - N/A   Clear
5:55 AM 51.8 °F 48.2 °F 88% 29.98 in 10.0 mi Calm Calm - N/A   Clear
6:15 AM 51.8 °F 48.2 °F 88% 29.98 in 10.0 mi Calm Calm - N/A   Clear
6:35 AM 51.8 °F 48.2 °F 88% 29.98 in 10.0 mi Calm Calm - N/A   Clear
6:55 AM 51.8 °F 48.2 °F 88% 29.99 in 10.0 mi Calm Calm - N/A   Clear
7:15 AM 51.8 °F 48.2 °F 88% 29.99 in 10.0 mi Calm Calm - N/A   Clear
7:35 AM 51.8 °F 48.2 °F 88% 30.00 in 10.0 mi Calm Calm - N/A   Clear
7:55 AM 51.8 °F 48.2 °F 88% 30.01 in 10.0 mi Calm Calm - N/A   Clear
8:15 AM 53.6 °F 50.0 °F 88% 30.01 in 10.0 mi Calm Calm - N/A   Clear
8:35 AM 55.4 °F 50.0 °F 82% 30.02 in 10.0 mi Calm Calm - N/A   Clear
8:55 AM 57.2 °F 50.0 °F 77% 30.03 in 10.0 mi Calm Calm - N/A   Clear
9:15 AM 59.0 °F 51.8 °F 77% 30.03 in 10.0 mi Calm Calm - N/A   Clear
9:35 AM 60.8 °F 50.0 °F 68% 30.04 in 10.0 mi Calm Calm - N/A   Clear
9:55 AM 62.6 °F 51.8 °F 68% 30.04 in 10.0 mi Calm Calm - N/A   Clear
10:15 AM 66.2 °F 51.8 °F 60% 30.05 in 10.0 mi NE 3.5 mph - N/A   Clear
10:35 AM 66.2 °F 50.0 °F 56% 30.05 in 10.0 mi East 4.6 mph - N/A   Clear
10:55 AM 66.2 °F 48.2 °F 52% 30.05 in 10.0 mi ENE 4.6 mph - N/A   Clear
11:15 AM 66.2 °F 51.8 °F 60% 30.05 in 10.0 mi North 3.5 mph - N/A   Clear
11:35 AM 68.0 °F 51.8 °F 56% 30.05 in 10.0 mi East 3.5 mph - N/A   Clear
11:55 AM 69.8 °F 51.8 °F 53% 30.05 in 10.0 mi East 5.8 mph - N/A   Clear
12:15 PM 71.6 °F 48.2 °F 43% 30.04 in 10.0 mi NE 6.9 mph - N/A   Clear
12:35 PM 71.6 °F 48.2 °F 43% 30.04 in 10.0 mi ESE 5.8 mph - N/A   Clear
12:55 PM 71.6 °F 48.2 °F 43% 30.04 in 10.0 mi East 3.5 mph - N/A   Clear
1:15 PM 71.6 °F 50.0 °F 46% 30.04 in 10.0 mi ESE 6.9 mph - N/A   Clear
1:35 PM 71.6 °F 51.8 °F 50% 30.04 in 10.0 mi East 4.6 mph - N/A   Clear
1:55 PM 73.4 °F 50.0 °F 44% 30.03 in 10.0 mi Calm Calm - N/A   Clear
2:15 PM 73.4 °F 51.8 °F 47% 30.03 in 10.0 mi North 3.5 mph - N/A   Clear
2:35 PM 73.4 °F 50.0 °F 44% 30.03 in 10.0 mi Calm Calm - N/A   Partly Cloudy
2:55 PM 73.4 °F 50.0 °F 44% 30.03 in 10.0 mi North 3.5 mph - N/A   Partly Cloudy
3:15 PM 71.6 °F 51.8 °F 50% 30.03 in 10.0 mi Calm Calm - N/A   Partly Cloudy
3:35 PM 71.6 °F 51.8 °F 50% 30.03 in 10.0 mi NE 3.5 mph - N/A   Mostly Cloudy
3:55 PM 71.6 °F 51.8 °F 50% 30.03 in 10.0 mi NE 4.6 mph - N/A   Scattered Clouds
4:15 PM 71.6 °F 51.8 °F 50% 30.03 in 10.0 mi NE 4.6 mph - N/A   Clear
4:35 PM 71.6 °F 51.8 °F 50% 30.03 in 10.0 mi NNE 5.8 mph - N/A   Clear
4:55 PM 71.6 °F 51.8 °F 50% 30.03 in 10.0 mi NE 4.6 mph - N/A   Clear
5:15 PM 73.4 °F 51.8 °F 47% 30.03 in 10.0 mi Calm Calm - N/A   Scattered Clouds
5:35 PM 71.6 °F 51.8 °F 50% 30.04 in 10.0 mi Calm Calm - N/A   Scattered Clouds
5:55 PM 71.6 °F 51.8 °F 50% 30.05 in 10.0 mi NE 3.5 mph - N/A   Clear
6:15 PM 69.8 °F 51.8 °F 53% 30.05 in 10.0 mi Calm Calm - N/A   Clear
6:35 PM 69.8 °F 51.8 °F 53% 30.05 in 10.0 mi East 4.6 mph - N/A   Clear
6:55 PM 66.2 °F 51.8 °F 60% 30.06 in 10.0 mi Calm Calm - N/A   Clear
7:15 PM 64.4 °F 51.8 °F 64% 30.06 in 10.0 mi Calm Calm - N/A   Clear
7:35 PM 62.6 °F 51.8 °F 68% 30.07 in 10.0 mi Calm Calm - N/A   Clear
7:55 PM 60.8 °F 51.8 °F 72% 30.07 in 10.0 mi Calm Calm - N/A   Clear
8:15 PM 60.8 °F 51.8 °F 72% 30.08 in 10.0 mi Calm Calm - N/A   Clear
8:35 PM 60.8 °F 51.8 °F 72% 30.08 in 10.0 mi Calm Calm - N/A   Clear
8:55 PM 57.2 °F 51.8 °F 82% 30.09 in 10.0 mi Calm Calm - N/A   Clear
9:15 PM 57.2 °F 51.8 °F 82% 30.09 in 10.0 mi Calm Calm - N/A   Clear
9:35 PM 55.4 °F 51.8 °F 88% 30.09 in 10.0 mi Calm Calm - N/A   Clear
9:55 PM 55.4 °F 51.8 °F 88% 30.10 in 10.0 mi Calm Calm - N/A   Clear
10:15 PM 55.4 °F 51.8 °F 88% 30.10 in 10.0 mi Calm Calm - N/A   Clear
10:35 PM 53.6 °F 51.8 °F 94% 30.10 in 10.0 mi Calm Calm - N/A   Clear
10:55 PM 53.6 °F 51.8 °F 94% 30.11 in 10.0 mi Calm Calm - N/A   Clear
11:15 PM 53.6 °F 51.8 °F 94% 30.11 in 10.0 mi Calm Calm - N/A   Clear
11:35 PM 53.6 °F 51.8 °F 94% 30.11 in 10.0 mi Calm Calm - N/A   Clear
11:55 PM 53.6 °F 50.0 °F 88% 30.11 in 10.0 mi Calm Calm - N/A   Clear